createdAt,value
2023-09-09T00:02:50.639Z,12.10
2023-09-09T00:07:52.499Z,11.27
2023-09-09T00:12:54.223Z,13.25
2023-09-09T00:17:55.969Z,11.50
2023-09-09T00:22:58.288Z,11.07
2023-09-09T00:27:59.947Z,13.52
2023-09-09T00:33:02.219Z,10.75
2023-09-09T00:38:04.247Z,10.90
2023-09-09T00:43:05.995Z,11.10
2023-09-09T00:48:08.323Z,11.63
2023-09-09T00:53:10.395Z,8.77
2023-09-09T00:58:12.474Z,9.40
2023-09-09T01:03:14.351Z,13.18
2023-09-09T01:08:28.590Z,11.77
2023-09-09T01:13:31.604Z,12.48
2023-09-09T01:18:36.192Z,11.05
2023-09-09T01:23:39.986Z,10.13
2023-09-09T01:28:43.241Z,9.80
2023-09-09T01:33:45.043Z,10.20
2023-09-09T01:38:46.724Z,8.18
2023-09-09T01:43:48.675Z,9.20
2023-09-09T01:48:50.480Z,10.00
2023-09-09T01:53:52.226Z,8.90
2023-09-09T01:58:53.939Z,10.02
2023-09-09T02:03:55.771Z,9.18
2023-09-09T02:08:57.721Z,12.48
2023-09-09T02:13:59.884Z,7.90
2023-09-09T02:19:01.677Z,10.27
2023-09-09T02:24:03.978Z,12.57
2023-09-09T02:29:05.637Z,9.60
2023-09-09T02:34:07.462Z,9.82
2023-09-09T02:39:09.198Z,8.73
2023-09-09T02:44:10.884Z,11.30
2023-09-09T02:49:12.589Z,10.77
2023-09-09T02:54:14.310Z,10.98
2023-09-09T02:59:16.151Z,10.80
2023-09-09T03:04:18.541Z,9.60
2023-09-09T03:09:21.838Z,11.15
2023-09-09T03:14:23.879Z,10.73
2023-09-09T03:19:26.442Z,9.98
2023-09-09T03:24:28.373Z,10.23
2023-09-09T03:29:30.306Z,11.27
2023-09-09T03:34:32.172Z,9.65
2023-09-09T03:39:33.991Z,10.10
2023-09-09T03:44:36.043Z,9.88
2023-09-09T03:49:37.855Z,9.38
2023-09-09T03:54:39.732Z,10.20
2023-09-09T03:59:42.127Z,11.55
2023-09-09T04:04:43.940Z,10.35
2023-09-09T04:09:45.776Z,10.40
2023-09-09T04:14:47.958Z,12.45
2023-09-09T04:19:50.428Z,10.93
2023-09-09T04:24:54.956Z,10.65
2023-09-09T04:29:57.095Z,10.85
2023-09-09T04:34:59.228Z,10.80
2023-09-09T04:40:01.087Z,11.93
2023-09-09T04:45:04.614Z,12.88
2023-09-09T04:50:07.797Z,12.82
2023-09-09T04:55:09.720Z,11.15
2023-09-09T05:00:11.921Z,13.60
2023-09-09T05:05:14.182Z,11.88
2023-09-09T05:10:16.300Z,10.15
2023-09-09T05:15:18.337Z,10.25
2023-09-09T05:20:20.541Z,11.23
2023-09-09T05:25:22.595Z,12.35
2023-09-09T05:30:24.312Z,9.90
2023-09-09T05:35:26.044Z,10.75
2023-09-09T05:40:27.890Z,10.27
2023-09-09T05:45:29.886Z,10.90
2023-09-09T05:50:31.664Z,8.73
2023-09-09T05:55:33.429Z,10.52
2023-09-09T06:00:35.487Z,8.68
2023-09-09T06:05:37.206Z,8.73
2023-09-09T06:10:39.296Z,8.30
2023-09-09T06:15:41.146Z,8.30
2023-09-09T06:20:49.619Z,7.60
2023-09-09T06:25:52.154Z,6.75
2023-09-09T06:30:54.638Z,8.23
2023-09-09T06:35:57.007Z,7.78
2023-09-09T06:41:00.360Z,8.40
2023-09-09T06:46:02.065Z,6.95
2023-09-09T06:51:04.163Z,7.53
2023-09-09T06:56:06.289Z,7.00
2023-09-09T07:01:08.001Z,7.63
2023-09-09T07:06:09.758Z,7.90
2023-09-09T07:11:12.556Z,8.70
2023-09-09T07:16:14.401Z,8.68
2023-09-09T07:21:16.037Z,8.50
2023-09-09T07:26:19.231Z,6.80
2023-09-09T07:31:21.163Z,6.82
2023-09-09T07:36:22.858Z,9.18
2023-09-09T07:41:24.565Z,7.72
2023-09-09T07:46:26.423Z,7.63
2023-09-09T07:51:29.065Z,7.70
2023-09-09T07:56:30.791Z,9.00
2023-09-09T08:01:32.519Z,9.57
2023-09-09T08:06:34.240Z,6.50
2023-09-09T08:11:35.951Z,8.35
2023-09-09T08:16:37.879Z,6.32
2023-09-09T08:21:39.844Z,5.88
2023-09-09T08:26:41.789Z,6.53
2023-09-09T08:31:44.135Z,7.45
2023-09-09T08:36:45.909Z,9.43
2023-09-09T08:42:13.480Z,7.00
2023-09-09T08:47:17.110Z,6.82
2023-09-09T08:52:25.881Z,5.63
2023-09-09T08:57:29.499Z,7.53
2023-09-09T09:02:31.793Z,7.05
2023-09-09T09:07:35.341Z,8.63
2023-09-09T09:12:37.668Z,6.28
2023-09-09T09:17:42.156Z,6.32
2023-09-09T09:22:43.963Z,6.13
2023-09-09T09:27:45.604Z,6.38
2023-09-09T09:32:47.278Z,5.97
2023-09-09T09:38:16.462Z,8.05
2023-09-09T09:43:19.976Z,6.13
2023-09-09T09:48:28.780Z,6.97
2023-09-09T09:53:30.454Z,6.18
2023-09-09T09:58:33.868Z,6.82
2023-09-09T10:03:49.941Z,6.03
2023-09-09T10:08:58.725Z,5.38
2023-09-09T10:14:06.376Z,5.38
2023-09-09T10:19:09.826Z,5.93
2023-09-09T10:24:12.225Z,7.68
2023-09-09T10:29:14.945Z,6.45
2023-09-09T10:34:17.461Z,4.93
2023-09-09T10:39:20.824Z,6.18
2023-09-09T10:44:22.606Z,5.45
2023-09-09T10:49:26.995Z,6.32
2023-09-09T10:54:28.755Z,4.32
2023-09-09T10:59:33.183Z,4.22
2023-09-09T11:04:37.978Z,5.25
2023-09-09T11:14:45.203Z,5.07
2023-09-09T11:19:47.440Z,5.18
2023-09-09T11:24:49.407Z,5.30
2023-09-09T11:29:54.718Z,6.13
2023-09-09T11:34:57.626Z,7.50
2023-09-09T11:40:00.052Z,6.50
2023-09-09T11:45:03.268Z,6.07
2023-09-09T11:50:07.673Z,6.97
2023-09-09T11:55:09.649Z,6.22
2023-09-09T12:00:12.202Z,5.28
2023-09-09T12:05:16.046Z,5.15
2023-09-09T12:10:17.811Z,6.18
2023-09-09T12:15:19.866Z,5.30
2023-09-09T12:20:21.693Z,8.95
2023-09-09T12:25:36.344Z,5.95
2023-09-09T12:30:42.436Z,5.53
2023-09-09T12:35:46.099Z,5.28
2023-09-09T12:40:54.765Z,5.13
2023-09-09T12:46:19.258Z,5.25
2023-09-09T12:51:22.446Z,6.07
2023-09-09T12:56:24.084Z,5.10
2023-09-09T13:01:25.997Z,6.15
2023-09-09T13:06:28.126Z,5.00
2023-09-09T13:11:30.674Z,7.43
2023-09-09T13:16:32.616Z,5.18
2023-09-09T13:21:34.322Z,4.85
2023-09-09T13:26:35.989Z,4.60
2023-09-09T13:31:37.684Z,5.75
2023-09-09T13:36:39.341Z,8.20
2023-09-09T13:41:41.121Z,6.05
2023-09-09T13:46:43.022Z,4.78
2023-09-09T13:51:44.686Z,5.70
2023-09-09T13:56:46.405Z,7.22
2023-09-09T14:01:48.939Z,5.80
2023-09-09T14:06:50.675Z,6.03
2023-09-09T14:11:52.310Z,6.03
2023-09-09T14:16:56.441Z,5.95
2023-09-09T14:21:58.187Z,7.22
2023-09-09T14:27:00.003Z,8.65
2023-09-09T14:32:01.749Z,5.97
2023-09-09T14:37:04.524Z,9.65
2023-09-09T14:42:06.499Z,7.28
2023-09-09T14:47:08.176Z,6.30
2023-09-09T14:52:10.657Z,8.00
2023-09-09T14:57:12.391Z,8.60
2023-09-09T15:02:14.048Z,5.18
2023-09-09T15:07:16.023Z,8.38
2023-09-09T15:12:18.393Z,6.75
2023-09-09T15:17:20.161Z,7.90
2023-09-09T15:22:21.865Z,8.80
2023-09-09T15:27:23.570Z,6.35
2023-09-09T15:32:25.365Z,6.68
2023-09-09T15:37:27.167Z,6.82
2023-09-09T15:42:28.935Z,6.93
2023-09-09T15:47:30.637Z,6.78
2023-09-09T15:52:32.315Z,6.22
2023-09-09T15:57:33.986Z,6.93
2023-09-09T16:02:35.783Z,6.97
2023-09-09T16:07:39.066Z,5.13
2023-09-09T16:12:40.901Z,5.93
2023-09-09T16:17:43.465Z,7.38
2023-09-09T16:22:45.169Z,6.95
2023-09-09T16:27:46.920Z,7.10
2023-09-09T16:32:48.669Z,6.45
2023-09-09T16:37:50.493Z,7.32
2023-09-09T16:42:52.274Z,6.80
2023-09-09T16:47:54.018Z,5.53
2023-09-09T16:52:55.817Z,5.85
2023-09-09T16:57:57.534Z,5.15
2023-09-09T17:02:59.289Z,6.90
2023-09-09T17:08:02.732Z,8.20
2023-09-09T17:13:04.533Z,6.15
2023-09-09T17:18:06.347Z,7.80
2023-09-09T17:23:08.186Z,9.45
2023-09-09T17:28:10.271Z,8.20
2023-09-09T17:33:12.000Z,5.75
2023-09-09T17:38:13.973Z,6.95
2023-09-09T17:43:15.646Z,7.68
2023-09-09T17:48:17.347Z,9.60
2023-09-09T17:53:19.052Z,8.10
2023-09-09T17:58:20.722Z,8.20
2023-09-09T18:03:22.583Z,9.75
2023-09-09T18:08:24.229Z,8.30
2023-09-09T18:13:25.995Z,7.80
2023-09-09T18:18:27.922Z,7.75
2023-09-09T18:23:29.682Z,8.75
2023-09-09T18:28:31.485Z,7.13
2023-09-09T18:33:33.193Z,6.72
2023-09-09T18:38:35.299Z,7.05
2023-09-09T18:43:37.138Z,6.43
2023-09-09T18:48:39.025Z,5.90
2023-09-09T18:53:41.040Z,5.22
2023-09-09T18:58:42.721Z,8.40
2023-09-09T19:03:44.845Z,7.45
2023-09-09T19:08:46.985Z,9.13
2023-09-09T19:13:53.974Z,11.00
2023-09-09T19:18:55.931Z,11.38
2023-09-09T19:23:57.676Z,9.23
2023-09-09T19:28:59.491Z,13.60
2023-09-09T19:34:01.265Z,12.57
2023-09-09T19:39:03.917Z,9.80
2023-09-09T19:44:05.711Z,11.55
2023-09-09T19:49:09.900Z,10.38
2023-09-09T19:54:14.250Z,11.40
2023-09-09T19:59:16.123Z,15.60
2023-09-09T20:04:17.798Z,15.15
2023-09-09T20:09:19.539Z,16.48
2023-09-09T20:14:21.257Z,17.92
2023-09-09T20:19:23.015Z,18.98
2023-09-09T20:24:24.703Z,16.40
2023-09-09T20:29:26.396Z,21.85
2023-09-09T20:34:28.138Z,17.38
2023-09-09T20:39:29.841Z,15.63
2023-09-09T20:44:31.953Z,15.45
2023-09-09T20:49:33.702Z,13.27
2023-09-09T20:54:35.392Z,12.55
2023-09-09T20:59:37.131Z,12.75
2023-09-09T21:04:39.197Z,12.73
2023-09-09T21:09:40.973Z,13.02
2023-09-09T21:14:42.735Z,11.10
2023-09-09T21:19:44.424Z,12.20
2023-09-09T21:24:46.105Z,13.73
2023-09-09T21:29:47.789Z,12.63
2023-09-09T21:34:52.021Z,11.88
2023-09-09T21:39:53.948Z,13.50
2023-09-09T21:44:56.684Z,12.25
2023-09-09T21:49:58.523Z,12.68
2023-09-09T21:55:00.255Z,12.45
2023-09-09T22:00:02.156Z,13.65
2023-09-09T22:05:06.879Z,14.85
2023-09-09T22:10:09.165Z,13.77
2023-09-09T22:15:11.753Z,13.38
2023-09-09T22:25:19.026Z,11.95
2023-09-09T22:30:20.954Z,12.73
2023-09-09T22:35:27.202Z,13.35
2023-09-09T22:40:28.980Z,13.40
2023-09-09T22:45:30.769Z,10.95
2023-09-09T22:50:33.649Z,11.15
2023-09-09T22:55:35.600Z,11.80
2023-09-09T23:00:37.263Z,12.32
2023-09-09T23:05:39.009Z,12.05
2023-09-09T23:10:40.739Z,11.77
2023-09-09T23:15:46.631Z,11.57
2023-09-09T23:20:48.395Z,13.05
2023-09-09T23:25:52.734Z,13.50
2023-09-09T23:31:01.625Z,12.95
2023-09-09T23:36:04.316Z,12.07
2023-09-09T23:41:06.329Z,10.80
2023-09-09T23:46:08.298Z,12.43
2023-09-09T23:51:10.127Z,12.57
2023-09-09T23:56:11.833Z,12.57
